Time;durP1;ratioP1;P1;durP2;ratioP2;P2;SDS_P1;SDS_P2;PMS_P1;PMS_P2;Temp;Humidity;BMP_temperature;BMP_pressure;BME280_temperature;BME280_humidity;BME280_pressure;Samples;Min_cycle;Max_cycle;Signal;HPM_P1;HPM_P2
2023/06/26 00:00:47;;;;;;;9.35;8.55;;;20.40;99.90;;;;;;5038135;28;20980;-78
2023/06/26 00:03:15;;;;;;;10.13;8.98;;;20.30;99.90;;;;;;5042978;28;20741;-80
2023/06/26 00:05:42;;;;;;;9.48;8.68;;;20.30;99.90;;;;;;5034418;28;20786;-78
2023/06/26 00:08:10;;;;;;;9.55;8.65;;;20.30;99.90;;;;;;5040535;28;20216;-78
2023/06/26 00:10:36;;;;;;;10.18;8.38;;;20.20;99.90;;;;;;5030253;28;20315;-78
2023/06/26 00:13:03;;;;;;;10.40;9.50;;;20.20;99.90;;;;;;5049728;28;20233;-79
2023/06/26 00:15:31;;;;;;;9.88;8.82;;;20.10;99.90;;;;;;5037538;28;20282;-79
2023/06/26 00:17:58;;;;;;;9.70;8.88;;;20.10;99.90;;;;;;5041350;28;20248;-78
2023/06/26 00:20:25;;;;;;;10.07;9.07;;;20.10;99.90;;;;;;5032913;28;20772;-79
2023/06/26 00:22:53;;;;;;;9.40;8.50;;;20.10;99.90;;;;;;5031488;28;20224;-79
2023/06/26 00:25:21;;;;;;;9.93;9.02;;;20.00;99.90;;;;;;5039490;28;20224;-80
2023/06/26 00:27:48;;;;;;;9.55;8.57;;;20.00;99.90;;;;;;5031791;28;20308;-79
2023/06/26 00:30:15;;;;;;;9.38;8.57;;;20.00;99.90;;;;;;5038911;28;20228;-79
2023/06/26 00:32:41;;;;;;;9.82;8.93;;;19.90;99.90;;;;;;5041116;28;20259;-79
2023/06/26 00:35:08;;;;;;;10.30;9.25;;;19.90;99.90;;;;;;5038783;28;20335;-80
2023/06/26 00:37:35;;;;;;;9.52;8.73;;;19.90;99.90;;;;;;5041123;28;20228;-78
2023/06/26 00:40:02;;;;;;;10.38;9.38;;;19.80;99.90;;;;;;5035975;28;20307;-81
2023/06/26 00:42:31;;;;;;;10.07;9.13;;;19.80;99.90;;;;;;5033313;28;20224;-79
2023/06/26 00:44:57;;;;;;;9.85;8.95;;;19.80;99.90;;;;;;5033893;28;20216;-79
2023/06/26 00:47:26;;;;;;;10.13;8.98;;;19.70;99.90;;;;;;5032335;28;20243;-79
2023/06/26 00:49:53;;;;;;;10.38;9.45;;;19.70;99.90;;;;;;5039427;28;20236;-79
2023/06/26 00:52:20;;;;;;;10.40;9.40;;;19.70;99.90;;;;;;5032475;28;20224;-80
2023/06/26 00:54:48;;;;;;;10.15;9.15;;;19.60;99.90;;;;;;5029561;28;20247;-80
2023/06/26 00:57:17;;;;;;;9.10;8.30;;;19.60;99.90;;;;;;5034247;28;20224;-80
2023/06/26 00:59:46;;;;;;;9.95;9.07;;;19.60;99.90;;;;;;5029361;28;20316;-79
2023/06/26 01:02:19;;;;;;;10.15;9.15;;;19.50;99.90;;;;;;5036346;28;20220;-80
2023/06/26 01:04:47;;;;;;;9.80;8.80;;;19.50;99.90;;;;;;5043254;28;21794;-81
2023/06/26 01:07:15;;;;;;;10.48;9.48;;;19.50;99.90;;;;;;5032648;28;20320;-80
2023/06/26 01:09:43;;;;;;;11.25;9.02;;;19.40;99.90;;;;;;5031359;28;20247;-79
2023/06/26 01:12:10;;;;;;;10.52;9.52;;;19.40;99.90;;;;;;5034635;28;20616;-80
2023/06/26 01:14:37;;;;;;;10.57;8.98;;;19.40;99.90;;;;;;5033924;28;20303;-82
2023/06/26 01:17:05;;;;;;;10.80;9.80;;;19.30;99.90;;;;;;5033580;28;20230;-78
2023/06/26 01:19:33;;;;;;;9.88;8.98;;;19.30;99.90;;;;;;5034525;28;20255;-81
2023/06/26 01:22:05;;;;;;;11.00;9.73;;;19.30;99.90;;;;;;5037798;28;20316;-79
2023/06/26 01:24:37;;;;;;;9.55;8.75;;;19.20;99.90;;;;;;5031867;28;20227;-79
2023/06/26 01:27:07;;;;;;;9.82;8.93;;;19.20;99.90;;;;;;5030494;28;20239;-79
2023/06/26 01:29:34;;;;;;;10.18;9.20;;;19.20;99.90;;;;;;5033040;28;20299;-79
2023/06/26 01:32:02;;;;;;;9.50;8.68;;;19.20;99.90;;;;;;5031008;28;20314;-79
2023/06/26 01:34:30;;;;;;;10.18;9.18;;;19.10;99.90;;;;;;5032321;28;20271;-80
2023/06/26 01:36:56;;;;;;;9.65;8.73;;;19.10;99.90;;;;;;5030368;28;20339;-79
2023/06/26 01:39:23;;;;;;;9.80;8.70;;;19.10;99.90;;;;;;5030947;28;20220;-80
2023/06/26 01:41:51;;;;;;;10.05;9.00;;;19.10;99.90;;;;;;5034968;28;20227;-80
2023/06/26 01:44:29;;;;;;;10.50;9.50;;;19.10;99.90;;;;;;5032229;28;20746;-80
2023/06/26 01:47:01;;;;;;;10.30;9.18;;;19.10;99.90;;;;;;5037858;28;20305;-81
2023/06/26 01:49:36;;;;;;;10.57;9.57;;;19.10;99.90;;;;;;5037214;28;20215;-79
2023/06/26 01:52:09;;;;;;;10.10;9.10;;;19.00;99.90;;;;;;5041669;28;20232;-81
2023/06/26 01:54:42;;;;;;;9.77;8.82;;;19.00;99.90;;;;;;5054196;23;20228;-78
2023/06/26 01:57:11;;;;;;;11.35;9.00;;;19.00;99.90;;;;;;5018290;28;20248;-78
2023/06/26 01:59:42;;;;;;;10.25;8.98;;;19.00;99.90;;;;;;5017566;28;20267;-77
2023/06/26 02:02:10;;;;;;;9.68;8.77;;;18.90;99.90;;;;;;5019132;28;20920;-77
2023/06/26 02:04:38;;;;;;;9.52;8.73;;;18.90;99.90;;;;;;5041199;28;20269;-77
2023/06/26 02:07:06;;;;;;;10.73;9.57;;;18.90;99.90;;;;;;5031930;28;20217;-77
2023/06/26 02:09:33;;;;;;;9.85;8.95;;;18.90;99.90;;;;;;5037427;28;20931;-77
2023/06/26 02:12:00;;;;;;;9.55;8.63;;;18.90;99.90;;;;;;5042263;28;20228;-77
2023/06/26 02:14:27;;;;;;;9.48;8.57;;;18.90;99.90;;;;;;5037139;28;20278;-77
2023/06/26 02:16:55;;;;;;;9.85;8.55;;;18.80;99.90;;;;;;5040488;28;20221;-78
2023/06/26 02:19:22;;;;;;;9.57;8.60;;;18.70;99.90;;;;;;5040741;28;20255;-77
2023/06/26 02:21:49;;;;;;;9.48;8.05;;;18.70;99.90;;;;;;5043857;28;20308;-77
2023/06/26 02:24:16;;;;;;;9.85;8.80;;;18.70;99.90;;;;;;5040164;28;20220;-79
2023/06/26 02:26:43;;;;;;;9.57;8.60;;;18.70;99.90;;;;;;5032350;28;20315;-78
2023/06/26 02:29:11;;;;;;;10.02;9.02;;;18.70;99.90;;;;;;5040251;28;20222;-78
2023/06/26 02:31:40;;;;;;;9.45;8.23;;;18.70;99.90;;;;;;5031308;28;20227;-78
2023/06/26 02:34:08;;;;;;;11.45;8.57;;;18.70;99.90;;;;;;5041985;28;20315;-78
2023/06/26 02:36:35;;;;;;;9.32;8.50;;;18.70;99.90;;;;;;5041690;28;20227;-77
2023/06/26 02:39:05;;;;;;;8.88;8.05;;;18.70;99.90;;;;;;5040887;28;20208;-77
2023/06/26 02:41:34;;;;;;;9.50;8.52;;;18.70;99.90;;;;;;5029239;28;20228;-77
2023/06/26 02:44:01;;;;;;;9.80;8.77;;;18.70;99.90;;;;;;5031258;28;20224;-77
2023/06/26 02:46:28;;;;;;;8.95;8.15;;;18.60;99.90;;;;;;5030967;28;20231;-78
2023/06/26 02:48:56;;;;;;;10.13;9.00;;;18.60;99.90;;;;;;5038451;28;20304;-78
2023/06/26 02:51:24;;;;;;;8.98;8.18;;;18.60;99.90;;;;;;5039846;28;20855;-78
2023/06/26 02:53:52;;;;;;;8.95;8.15;;;18.60;99.90;;;;;;5037217;28;20788;-78
2023/06/26 02:56:19;;;;;;;11.07;8.50;;;18.60;99.90;;;;;;5038378;28;20299;-77
2023/06/26 02:58:46;;;;;;;9.10;8.05;;;18.60;99.90;;;;;;5036817;28;20387;-77
2023/06/26 03:01:13;;;;;;;10.95;8.18;;;18.50;99.90;;;;;;5038282;28;20208;-77
2023/06/26 03:03:42;;;;;;;9.27;8.38;;;18.50;99.90;;;;;;5040920;28;20228;-77
2023/06/26 03:06:14;;;;;;;8.70;7.80;;;18.50;99.90;;;;;;5036681;28;20225;-77
2023/06/26 03:08:42;;;;;;;9.55;8.30;;;18.50;99.90;;;;;;5033871;28;20228;-77
2023/06/26 03:11:10;;;;;;;9.00;7.80;;;18.50;99.90;;;;;;5038690;28;20338;-77
2023/06/26 03:13:38;;;;;;;10.65;8.32;;;18.50;99.90;;;;;;5032531;28;20223;-77
2023/06/26 03:16:05;;;;;;;10.85;8.38;;;18.50;99.90;;;;;;5034306;28;20227;-77
2023/06/26 03:18:33;;;;;;;9.50;8.50;;;18.50;99.90;;;;;;5040539;28;21103;-77
2023/06/26 03:21:00;;;;;;;8.52;7.72;;;18.50;99.90;;;;;;5035075;28;20604;-77
2023/06/26 03:23:27;;;;;;;9.45;8.55;;;18.50;99.90;;;;;;5031762;28;20752;-77
2023/06/26 03:25:55;;;;;;;10.00;8.63;;;18.40;99.90;;;;;;5033538;28;20307;-77
2023/06/26 03:28:26;;;;;;;8.70;7.90;;;18.50;99.90;;;;;;5032759;28;20305;-77
2023/06/26 03:30:53;;;;;;;10.63;7.85;;;18.50;99.90;;;;;;5035341;28;20224;-77
2023/06/26 03:33:19;;;;;;;9.07;8.18;;;18.50;99.90;;;;;;5037779;28;20645;-77
2023/06/26 03:35:46;;;;;;;8.48;7.60;;;18.50;99.90;;;;;;5038242;28;20251;-78
2023/06/26 03:38:15;;;;;;;11.07;8.20;;;18.50;99.90;;;;;;5040645;28;20327;-78
2023/06/26 03:40:43;;;;;;;8.63;7.82;;;18.60;99.90;;;;;;5052878;28;20896;-77
2023/06/26 03:43:11;;;;;;;9.93;8.40;;;18.60;99.90;;;;;;5039013;28;20848;-77
2023/06/26 03:45:46;;;;;;;8.50;7.63;;;18.60;99.90;;;;;;5038775;28;20220;-77
2023/06/26 03:48:14;;;;;;;10.07;7.70;;;18.60;99.90;;;;;;5037376;28;20294;-77
2023/06/26 03:50:40;;;;;;;8.52;7.47;;;18.70;99.90;;;;;;5037029;28;20980;-77
2023/06/26 03:53:07;;;;;;;8.73;7.82;;;18.70;99.90;;;;;;5045235;28;20235;-77
2023/06/26 03:55:34;;;;;;;8.63;7.22;;;18.70;99.90;;;;;;5046527;28;20232;-77
2023/06/26 03:58:01;;;;;;;8.95;8.05;;;18.70;99.90;;;;;;5035643;28;20216;-77
2023/06/26 04:00:29;;;;;;;11.10;7.55;;;18.80;99.90;;;;;;5041047;28;20216;-77
2023/06/26 04:02:57;;;;;;;8.75;7.95;;;18.90;99.90;;;;;;5041802;28;20219;-77
2023/06/26 04:05:24;;;;;;;8.75;7.82;;;18.90;99.90;;;;;;5040013;28;20782;-77
2023/06/26 04:07:51;;;;;;;8.70;7.50;;;18.90;99.90;;;;;;5039130;28;20453;-77
2023/06/26 04:10:20;;;;;;;8.20;7.22;;;19.00;99.90;;;;;;5053726;28;20528;-77
2023/06/26 04:12:48;;;;;;;8.68;7.18;;;19.00;99.90;;;;;;5040736;28;20232;-78
2023/06/26 04:15:15;;;;;;;9.32;7.75;;;19.10;99.90;;;;;;5040602;28;20220;-77
2023/06/26 04:17:43;;;;;;;8.32;7.57;;;19.10;99.90;;;;;;5037123;28;20625;-77
2023/06/26 04:20:10;;;;;;;7.97;6.97;;;19.20;99.90;;;;;;5042452;28;20690;-77
2023/06/26 04:22:37;;;;;;;8.90;8.00;;;19.30;99.90;;;;;;5040012;28;20228;-78
2023/06/26 04:25:04;;;;;;;8.40;7.60;;;19.30;99.90;;;;;;5039575;28;20232;-77
2023/06/26 04:27:31;;;;;;;8.68;7.60;;;19.30;99.90;;;;;;5040646;28;20234;-77
2023/06/26 04:29:57;;;;;;;7.80;7.05;;;19.30;99.90;;;;;;5039166;28;20223;-77
2023/06/26 04:32:24;;;;;;;8.82;7.97;;;19.40;99.90;;;;;;5036735;28;20224;-78
2023/06/26 04:34:53;;;;;;;10.05;8.23;;;19.40;99.90;;;;;;5042407;28;20240;-78
2023/06/26 04:37:20;;;;;;;9.38;7.55;;;19.40;99.90;;;;;;5040250;28;20246;-77
2023/06/26 04:39:46;;;;;;;8.10;6.85;;;19.40;99.90;;;;;;5042139;28;20220;-77
2023/06/26 04:42:13;;;;;;;8.55;7.60;;;19.40;99.90;;;;;;5036145;28;20763;-77
2023/06/26 04:44:40;;;;;;;9.23;7.28;;;19.40;99.90;;;;;;5036472;28;20709;-77
2023/06/26 04:47:07;;;;;;;9.68;7.50;;;19.40;99.90;;;;;;5034162;28;20269;-77
2023/06/26 04:49:34;;;;;;;7.80;7.10;;;19.50;99.90;;;;;;5041515;28;20230;-77
2023/06/26 04:52:02;;;;;;;8.15;7.38;;;19.50;99.90;;;;;;5039253;28;20226;-78
2023/06/26 04:54:29;;;;;;;8.13;7.32;;;19.50;99.90;;;;;;5038351;28;20220;-78
2023/06/26 04:56:56;;;;;;;9.10;7.50;;;19.50;99.90;;;;;;5036543;28;20827;-78
2023/06/26 04:59:23;;;;;;;8.93;7.65;;;19.60;99.90;;;;;;5042943;28;20270;-78
2023/06/26 05:01:50;;;;;;;8.82;7.40;;;19.60;99.90;;;;;;5034246;28;20259;-77
2023/06/26 05:04:17;;;;;;;7.75;6.95;;;19.60;99.90;;;;;;5038908;28;20507;-77
2023/06/26 05:06:44;;;;;;;8.15;7.35;;;19.70;99.90;;;;;;5039521;28;20220;-77
2023/06/26 05:09:12;;;;;;;7.45;6.70;;;19.70;99.90;;;;;;5041669;28;20760;-76
2023/06/26 05:11:39;;;;;;;7.80;7.00;;;19.80;99.90;;;;;;5042293;28;20231;-77
2023/06/26 05:14:07;;;;;;;8.50;6.90;;;19.90;99.90;;;;;;5037431;28;20219;-77
2023/06/26 05:16:35;;;;;;;7.97;6.68;;;19.90;99.90;;;;;;5038879;28;20229;-77
2023/06/26 05:19:02;;;;;;;9.18;7.32;;;19.90;99.90;;;;;;5036490;28;20221;-78
2023/06/26 05:21:29;;;;;;;7.43;6.50;;;20.00;99.90;;;;;;5030881;28;20220;-77
2023/06/26 05:23:58;;;;;;;7.90;6.93;;;20.00;99.90;;;;;;5032727;28;20264;-77
2023/06/26 05:26:27;;;;;;;8.30;6.60;;;20.10;99.90;;;;;;5037739;28;20227;-77
2023/06/26 05:28:55;;;;;;;8.23;7.43;;;20.10;99.90;;;;;;5034881;28;20323;-77
2023/06/26 05:31:23;;;;;;;8.25;6.80;;;20.20;99.90;;;;;;5034427;28;20221;-76
2023/06/26 05:33:51;;;;;;;7.60;6.88;;;20.30;99.90;;;;;;5041033;28;20289;-79
2023/06/26 05:36:21;;;;;;;7.35;6.65;;;20.30;99.90;;;;;;5033815;28;20259;-78
2023/06/26 05:38:49;;;;;;;9.10;7.15;;;20.40;99.90;;;;;;5034815;28;20708;-77
2023/06/26 05:41:17;;;;;;;7.50;6.70;;;20.40;99.90;;;;;;5036129;28;20311;-79
2023/06/26 05:43:45;;;;;;;7.68;6.63;;;20.40;99.90;;;;;;5027232;28;20220;-77
2023/06/26 05:46:12;;;;;;;6.88;6.18;;;20.50;99.90;;;;;;5032421;28;20303;-78
2023/06/26 05:48:40;;;;;;;7.43;6.60;;;20.60;99.90;;;;;;5029576;28;20614;-78
2023/06/26 05:51:08;;;;;;;7.57;6.85;;;20.70;99.90;;;;;;5033215;28;20220;-77
2023/06/26 05:53:35;;;;;;;6.78;6.10;;;20.70;99.90;;;;;;5035137;28;20258;-78
2023/06/26 05:56:03;;;;;;;7.55;5.95;;;20.80;99.90;;;;;;5033007;28;20247;-78
2023/06/26 05:58:31;;;;;;;8.32;6.10;;;20.90;99.90;;;;;;5032128;28;20269;-78
2023/06/26 06:00:59;;;;;;;8.57;6.43;;;20.90;99.90;;;;;;5025405;28;20639;-78
2023/06/26 06:03:26;;;;;;;8.40;5.93;;;21.00;99.90;;;;;;5029269;28;20228;-77
2023/06/26 06:05:52;;;;;;;7.25;6.55;;;21.10;99.90;;;;;;5038288;28;20650;-78
2023/06/26 06:08:19;;;;;;;7.70;6.57;;;21.20;99.90;;;;;;5040002;28;20219;-78
2023/06/26 06:10:46;;;;;;;8.15;6.35;;;21.20;99.90;;;;;;5052603;28;20227;-77
2023/06/26 06:13:13;;;;;;;8.60;6.70;;;21.30;99.90;;;;;;5034823;28;20227;-78
2023/06/26 06:15:39;;;;;;;7.90;6.32;;;21.30;99.90;;;;;;5041834;28;20252;-78
2023/06/26 06:18:07;;;;;;;6.40;5.72;;;21.40;99.90;;;;;;5037031;28;20424;-78
2023/06/26 06:20:34;;;;;;;7.40;6.20;;;21.50;99.90;;;;;;5038463;28;20231;-78
2023/06/26 06:23:00;;;;;;;7.20;6.35;;;21.50;99.90;;;;;;5036632;28;20216;-78
2023/06/26 06:25:27;;;;;;;7.05;6.07;;;21.60;99.90;;;;;;5033894;28;20228;-78
2023/06/26 06:27:54;;;;;;;6.80;6.10;;;21.70;99.90;;;;;;5038376;28;20235;-79
2023/06/26 06:30:21;;;;;;;7.72;6.28;;;21.80;99.90;;;;;;5041215;28;20216;-78
2023/06/26 06:32:50;;;;;;;7.15;6.03;;;21.90;99.90;;;;;;5041412;28;20322;-79
2023/06/26 06:35:18;;;;;;;6.95;6.25;;;22.00;99.90;;;;;;5038593;28;20660;-78
2023/06/26 06:37:45;;;;;;;6.40;5.65;;;22.20;99.90;;;;;;5040950;28;20227;-79
2023/06/26 06:40:12;;;;;;;7.82;6.05;;;22.30;99.90;;;;;;5039182;28;21178;-78
2023/06/26 06:42:39;;;;;;;6.78;5.80;;;22.40;99.90;;;;;;5039083;28;20224;-78
2023/06/26 06:45:06;;;;;;;6.47;5.88;;;22.60;99.90;;;;;;5036413;28;20228;-80
2023/06/26 06:47:33;;;;;;;6.78;5.97;;;22.70;99.90;;;;;;5024180;28;20239;-78
2023/06/26 06:50:07;;;;;;;7.03;6.03;;;22.80;99.90;;;;;;5040902;28;20228;-80
2023/06/26 06:52:36;;;;;;;6.60;6.00;;;22.90;99.90;;;;;;5036938;28;20722;-80
2023/06/26 06:55:05;;;;;;;7.40;6.32;;;23.10;99.90;;;;;;5041310;28;20233;-80
2023/06/26 06:57:35;;;;;;;6.32;5.72;;;23.30;99.90;;;;;;5036259;28;20327;-78
2023/06/26 07:00:04;;;;;;;6.45;5.85;;;23.40;99.90;;;;;;5035166;28;20212;-78
2023/06/26 07:02:31;;;;;;;6.72;6.00;;;23.50;99.90;;;;;;5036755;28;20228;-79
2023/06/26 07:04:57;;;;;;;8.18;6.22;;;23.80;99.90;;;;;;5034519;28;20232;-79
2023/06/26 07:07:24;;;;;;;9.40;6.00;;;24.10;99.90;;;;;;5038204;28;20251;-79
2023/06/26 07:09:52;;;;;;;7.05;6.35;;;24.40;99.90;;;;;;5042839;28;20657;-79
2023/06/26 07:12:18;;;;;;;6.72;6.00;;;24.90;99.90;;;;;;5035192;28;20220;-78
2023/06/26 07:14:45;;;;;;;6.20;5.60;;;25.40;99.90;;;;;;5041077;28;20232;-80
2023/06/26 07:17:12;;;;;;;5.70;5.20;;;25.80;99.60;;;;;;5038313;28;20967;-78
2023/06/26 07:19:38;;;;;;;6.30;5.47;;;26.20;99.70;;;;;;5041848;28;20224;-78
2023/06/26 07:22:05;;;;;;;6.85;5.90;;;26.70;99.50;;;;;;5039164;28;20223;-78
2023/06/26 07:24:32;;;;;;;6.40;5.78;;;27.20;99.20;;;;;;5041004;28;20228;-79
2023/06/26 07:27:00;;;;;;;7.28;5.70;;;27.70;98.20;;;;;;5037812;28;20311;-78
2023/06/26 07:29:27;;;;;;;6.07;5.47;;;28.20;95.50;;;;;;5033531;28;20228;-79
2023/06/26 07:31:53;;;;;;;6.07;5.47;;;28.60;95.30;;;;;;5041278;28;20228;-85
2023/06/26 07:34:20;;;;;;;6.18;5.35;;;29.00;95.50;;;;;;5041511;28;20235;-84
2023/06/26 07:36:47;;;;;;;6.80;6.10;;;29.30;94.50;;;;;;5043175;28;20258;-84
2023/06/26 07:39:13;;;;;;;6.22;5.40;;;29.70;93.20;;;;;;5041063;28;20280;-82
2023/06/26 07:41:40;;;;;;;6.78;5.40;;;30.00;93.30;;;;;;5046237;28;20228;-83
2023/06/26 07:44:08;;;;;;;7.95;6.10;;;30.20;93.10;;;;;;5042469;28;20650;-82
2023/06/26 07:46:35;;;;;;;6.38;5.63;;;30.50;89.50;;;;;;5040980;28;20235;-81
2023/06/26 07:49:02;;;;;;;6.88;5.30;;;30.70;91.00;;;;;;5046082;28;20232;-81
2023/06/26 07:51:28;;;;;;;5.95;5.45;;;30.80;88.80;;;;;;5039551;28;20448;-81
2023/06/26 07:56:26;;;;;;;6.80;6.10;;;31.10;88.10;;;;;;4983424;28;20228;-76
2023/06/26 07:58:53;;;;;;;8.10;5.88;;;31.20;86.50;;;;;;4985753;28;20226;-76
2023/06/26 08:01:21;;;;;;;5.95;5.40;;;31.20;86.00;;;;;;4984798;28;20257;-76
2023/06/26 08:03:48;;;;;;;7.53;5.72;;;31.30;86.30;;;;;;4990841;28;20308;-76
2023/06/26 08:06:14;;;;;;;6.38;5.78;;;31.30;86.10;;;;;;4983672;28;20349;-77
2023/06/26 08:08:41;;;;;;;6.65;5.22;;;31.40;85.80;;;;;;4985413;28;20244;-76
2023/06/26 08:11:08;;;;;;;6.93;5.35;;;31.50;84.50;;;;;;4999433;28;20300;-77
2023/06/26 08:13:35;;;;;;;6.68;5.32;;;31.60;84.50;;;;;;4985241;28;20648;-76
2023/06/26 08:16:01;;;;;;;7.18;5.82;;;31.70;85.10;;;;;;4984998;28;20265;-77
2023/06/26 08:18:29;;;;;;;6.82;5.53;;;31.90;85.80;;;;;;4984568;28;20299;-76
2023/06/26 08:20:56;;;;;;;6.38;5.78;;;32.10;83.70;;;;;;4986734;28;20241;-77
2023/06/26 08:23:24;;;;;;;8.35;6.07;;;32.20;83.10;;;;;;4995564;28;20234;-77
2023/06/26 08:25:51;;;;;;;6.53;5.60;;;32.10;78.90;;;;;;4984928;28;20241;-76
2023/06/26 08:28:17;;;;;;;6.68;6.07;;;32.00;79.50;;;;;;4984812;28;20234;-77
2023/06/26 08:30:44;;;;;;;6.00;5.30;;;31.80;79.20;;;;;;4985129;28;20253;-77
2023/06/26 08:33:12;;;;;;;5.90;5.20;;;31.70;78.80;;;;;;4982674;28;20346;-77
2023/06/26 08:35:40;;;;;;;6.72;6.13;;;31.60;80.00;;;;;;4990681;28;20321;-76
2023/06/26 08:38:06;;;;;;;6.53;5.93;;;31.60;79.90;;;;;;4995591;28;20229;-76
2023/06/26 08:40:33;;;;;;;6.80;6.20;;;31.50;79.00;;;;;;5004037;28;20230;-77
2023/06/26 08:43:00;;;;;;;7.32;6.13;;;31.40;80.00;;;;;;4984688;28;20244;-76
2023/06/26 08:45:28;;;;;;;6.38;5.78;;;31.20;79.50;;;;;;4990894;28;20226;-76
2023/06/26 08:47:56;;;;;;;9.13;5.90;;;31.00;79.10;;;;;;4984364;28;20735;-77
2023/06/26 08:50:24;;;;;;;7.03;6.13;;;31.00;80.50;;;;;;4982794;28;20221;-77
2023/06/26 08:53:01;;;;;;;7.88;5.80;;;31.10;80.20;;;;;;4985274;28;20280;-77
2023/06/26 08:55:29;;;;;;;6.78;6.18;;;31.10;79.20;;;;;;4984273;28;20333;-77
2023/06/26 08:57:56;;;;;;;7.40;5.88;;;31.20;80.20;;;;;;4984573;28;20234;-77
2023/06/26 09:00:23;;;;;;;6.30;5.70;;;31.20;80.80;;;;;;4977385;28;20237;-76
2023/06/26 09:02:50;;;;;;;6.78;6.18;;;31.20;80.90;;;;;;4995101;28;20244;-77
2023/06/26 09:05:17;;;;;;;6.70;5.78;;;31.10;78.70;;;;;;4983138;28;20229;-76
2023/06/26 09:07:44;;;;;;;6.82;6.20;;;31.00;79.90;;;;;;4983896;28;20234;-77
2023/06/26 09:10:12;;;;;;;7.32;6.63;;;31.00;79.50;;;;;;4983923;28;20805;-76
2023/06/26 09:12:39;;;;;;;6.43;5.82;;;31.00;80.10;;;;;;4968976;28;20319;-74
2023/06/26 09:15:07;;;;;;;7.03;6.03;;;31.00;82.00;;;;;;5000238;28;20221;-75
2023/06/26 09:17:40;;;;;;;10.02;6.18;;;31.10;81.70;;;;;;4989551;28;20226;-75
2023/06/26 09:20:09;;;;;;;6.65;5.88;;;31.30;81.70;;;;;;4984812;28;20241;-76
2023/06/26 09:22:39;;;;;;;6.78;6.15;;;31.60;80.70;;;;;;4985254;28;20735;-75
2023/06/26 09:25:07;;;;;;;8.27;6.65;;;32.00;79.90;;;;;;4981738;28;20736;-75
2023/06/26 09:27:35;;;;;;;8.10;7.22;;;32.30;78.20;;;;;;4984306;28;20336;-75
2023/06/26 09:30:02;;;;;;;7.63;7.00;;;32.50;76.40;;;;;;4985146;28;20242;-75
2023/06/26 09:32:29;;;;;;;7.70;6.88;;;32.70;75.90;;;;;;4984594;28;20731;-76
2023/06/26 09:34:56;;;;;;;8.70;7.85;;;32.90;76.70;;;;;;4984650;28;20307;-75
2023/06/26 09:37:23;;;;;;;10.18;7.32;;;33.10;76.90;;;;;;4984199;28;20334;-75
2023/06/26 09:39:52;;;;;;;8.88;8.05;;;33.20;76.40;;;;;;4984308;28;20253;-74
2023/06/26 09:42:19;;;;;;;10.63;7.75;;;33.30;75.10;;;;;;4983984;28;20225;-75
2023/06/26 09:44:47;;;;;;;9.10;8.30;;;33.30;75.10;;;;;;4985272;28;20231;-75
2023/06/26 09:47:17;;;;;;;9.13;8.13;;;33.20;73.90;;;;;;4982905;28;20261;-75
2023/06/26 09:49:44;;;;;;;9.93;8.45;;;33.10;73.40;;;;;;4982955;28;20287;-75
2023/06/26 09:52:11;;;;;;;9.40;8.60;;;32.90;73.00;;;;;;4981971;28;20843;-75
2023/06/26 09:54:37;;;;;;;11.20;9.00;;;32.60;73.40;;;;;;4982794;28;20234;-75
2023/06/26 09:57:11;;;;;;;9.35;8.18;;;32.30;74.00;;;;;;4984055;28;20236;-75
2023/06/26 09:59:37;;;;;;;9.43;8.00;;;32.00;74.80;;;;;;4984901;28;20233;-75
2023/06/26 10:02:06;;;;;;;17.95;8.48;;;31.70;75.50;;;;;;4982555;28;20622;-74
2023/06/26 10:04:33;;;;;;;11.88;7.85;;;31.30;76.60;;;;;;4984419;28;20238;-75
2023/06/26 10:07:03;;;;;;;9.80;7.50;;;30.90;77.40;;;;;;4982438;28;20229;-75
2023/06/26 10:09:31;;;;;;;10.40;8.82;;;30.50;78.80;;;;;;4984359;28;20312;-75
2023/06/26 10:12:01;;;;;;;8.93;7.60;;;30.20;79.60;;;;;;4984055;28;20727;-75
2023/06/26 10:14:32;;;;;;;10.77;8.60;;;29.90;79.90;;;;;;4982096;28;20321;-74
2023/06/26 10:17:00;;;;;;;9.65;8.48;;;29.50;80.30;;;;;;4982389;28;20772;-75
2023/06/26 10:19:30;;;;;;;9.43;8.30;;;29.20;81.30;;;;;;4983180;28;20256;-75
2023/06/26 10:21:58;;;;;;;11.55;9.05;;;28.80;82.50;;;;;;4983886;28;20244;-75
2023/06/26 10:24:29;;;;;;;9.10;8.20;;;28.50;83.40;;;;;;4983933;28;20230;-74
2023/06/26 10:27:00;;;;;;;12.85;10.43;;;28.20;86.20;;;;;;4983958;28;20251;-75
2023/06/26 10:29:27;;;;;;;15.82;11.43;;;27.80;90.80;;;;;;4981948;28;20240;-76
2023/06/26 10:31:57;;;;;;;13.85;10.73;;;27.40;92.60;;;;;;4983380;28;20329;-76
2023/06/26 10:34:24;;;;;;;13.10;11.75;;;26.90;93.50;;;;;;4983899;28;20237;-76
2023/06/26 10:37:01;;;;;;;13.65;11.13;;;26.40;94.50;;;;;;4984750;28;20234;-76
2023/06/26 10:39:33;;;;;;;28.10;15.30;;;25.80;97.70;;;;;;4986165;28;20230;-77
2023/06/26 10:42:10;;;;;;;14.95;12.35;;;25.30;98.50;;;;;;4985212;28;20232;-77
2023/06/26 10:44:43;;;;;;;15.57;12.05;;;24.70;99.90;;;;;;4981415;28;20260;-77
2023/06/26 10:47:09;;;;;;;14.27;9.80;;;24.20;99.90;;;;;;4987780;28;20233;-77
2023/06/26 10:49:39;;;;;;;10.48;8.68;;;23.70;99.90;;;;;;4988892;28;20329;-77
2023/06/26 10:52:08;;;;;;;11.30;8.45;;;23.20;99.90;;;;;;4987808;28;20214;-77
2023/06/26 10:54:36;;;;;;;10.77;7.32;;;22.80;99.90;;;;;;4988266;28;20264;-77
2023/06/26 10:57:03;;;;;;;8.90;7.50;;;22.40;99.90;;;;;;4986869;28;20744;-77
2023/06/26 10:59:31;;;;;;;8.90;7.45;;;22.10;99.90;;;;;;4986762;28;20723;-76
2023/06/26 11:01:59;;;;;;;8.85;7.22;;;21.80;99.90;;;;;;4988623;28;20313;-76
2023/06/26 11:04:40;;;;;;;7.53;6.53;;;21.60;99.90;;;;;;4987763;28;20308;-76
2023/06/26 11:07:19;;;;;;;6.82;5.90;;;21.40;99.90;;;;;;4987564;28;20248;-76
2023/06/26 11:09:57;;;;;;;10.40;6.28;;;21.30;99.90;;;;;;4988385;28;20311;-76
2023/06/26 11:12:37;;;;;;;7.05;5.88;;;21.20;99.90;;;;;;4985824;28;20226;-76
2023/06/26 11:15:05;;;;;;;7.57;6.07;;;21.00;99.90;;;;;;4986714;28;20411;-76
2023/06/26 11:17:32;;;;;;;6.82;6.13;;;21.00;99.90;;;;;;4988025;28;20245;-76
2023/06/26 11:19:59;;;;;;;7.30;6.60;;;21.00;99.90;;;;;;4988326;28;20230;-75
2023/06/26 11:22:27;;;;;;;8.27;6.40;;;21.10;99.90;;;;;;4987072;28;20241;-76
2023/06/26 11:24:55;;;;;;;7.60;6.80;;;21.10;99.90;;;;;;4987961;28;20229;-76
2023/06/26 11:27:24;;;;;;;8.73;7.45;;;21.20;99.90;;;;;;4987202;28;20230;-76
2023/06/26 11:29:50;;;;;;;9.07;7.25;;;21.30;99.90;;;;;;4988150;28;20741;-76
2023/06/26 11:32:17;;;;;;;12.75;8.45;;;21.40;99.90;;;;;;4986122;28;20272;-76
2023/06/26 11:34:44;;;;;;;10.73;7.57;;;21.60;99.90;;;;;;4988161;28;20343;-76
2023/06/26 11:37:11;;;;;;;13.27;7.47;;;21.90;99.90;;;;;;4987220;28;20321;-76
2023/06/26 11:39:39;;;;;;;11.52;7.82;;;22.10;99.90;;;;;;4999226;28;20229;-75
2023/06/26 11:42:06;;;;;;;9.35;6.43;;;22.40;99.90;;;;;;4997124;28;20250;-76
2023/06/26 11:44:40;;;;;;;11.35;5.68;;;22.70;99.90;;;;;;4986351;28;20481;-76
2023/06/26 11:47:07;;;;;;;9.18;5.35;;;23.10;99.90;;;;;;4986974;28;20244;-77
2023/06/26 11:49:34;;;;;;;10.93;5.28;;;23.40;99.90;;;;;;4965422;28;20310;-76
2023/06/26 11:52:03;;;;;;;8.73;4.85;;;23.70;99.90;;;;;;4974672;28;20713;-76
2023/06/26 11:54:30;;;;;;;10.60;5.13;;;24.00;99.90;;;;;;4986956;28;20242;-76
2023/06/26 11:57:00;;;;;;;11.68;5.18;;;24.20;99.90;;;;;;4986791;28;20226;-76
2023/06/26 11:59:35;;;;;;;10.20;5.35;;;24.40;99.90;;;;;;4986650;28;20317;-75
2023/06/26 12:02:05;;;;;;;9.85;4.80;;;24.40;99.90;;;;;;4992915;28;20221;-75
2023/06/26 12:04:33;;;;;;;8.90;4.20;;;24.60;99.90;;;;;;4987130;28;20238;-75
2023/06/26 12:07:03;;;;;;;11.38;4.57;;;24.70;99.90;;;;;;4986778;28;20242;-75
2023/06/26 12:09:33;;;;;;;11.07;3.97;;;24.90;99.90;;;;;;4986948;28;20325;-74
2023/06/26 12:12:02;;;;;;;7.60;3.40;;;25.00;99.90;;;;;;4986399;28;20221;-75
2023/06/26 12:14:29;;;;;;;9.45;3.25;;;25.00;99.90;;;;;;4997516;28;20333;-75
2023/06/26 12:16:56;;;;;;;8.43;2.85;;;25.00;99.90;;;;;;4992209;28;20257;-75
2023/06/26 12:19:26;;;;;;;9.60;2.55;;;24.80;99.90;;;;;;4983011;28;20230;-79
2023/06/26 12:21:56;;;;;;;7.35;2.50;;;24.60;99.90;;;;;;4971978;28;20314;-78
2023/06/26 12:24:23;;;;;;;9.35;2.67;;;24.40;99.90;;;;;;4980619;28;20226;-78
2023/06/26 12:26:53;;;;;;;8.10;2.85;;;24.30;99.90;;;;;;4994380;28;20353;-78
2023/06/26 12:29:22;;;;;;;7.80;2.50;;;24.30;99.90;;;;;;4981266;28;20304;-79
2023/06/26 12:31:53;;;;;;;8.82;2.75;;;24.30;99.90;;;;;;4977760;28;20281;-77
2023/06/26 12:34:22;;;;;;;5.78;2.63;;;24.30;99.90;;;;;;4981654;28;20304;-79
2023/06/26 12:36:50;;;;;;;6.80;2.58;;;24.60;99.90;;;;;;4980589;28;20234;-79
2023/06/26 12:39:18;;;;;;;9.38;3.00;;;24.80;99.90;;;;;;4976734;28;20222;-79
2023/06/26 12:41:46;;;;;;;6.95;2.75;;;25.00;99.90;;;;;;4987469;28;20715;-79
2023/06/26 12:44:22;;;;;;;7.47;2.50;;;25.20;99.10;;;;;;4985747;28;20964;-76
2023/06/26 12:46:50;;;;;;;7.65;2.95;;;25.30;98.30;;;;;;4982553;28;20312;-77
2023/06/26 12:49:17;;;;;;;7.78;2.83;;;25.40;98.20;;;;;;4977115;28;20313;-77